sensor_id;sensor_type;location;lat;lon;timestamp;P1;durP1;ratioP1;P2;durP2;ratioP2
5821;SDS011;2937;48.562;8.022;2023-05-18T00:03:28;20.07;;;13.93;;
5821;SDS011;2937;48.562;8.022;2023-05-18T00:08:24;18.07;;;11.97;;
5821;SDS011;2937;48.562;8.022;2023-05-18T00:13:17;18.10;;;11.87;;
5821;SDS011;2937;48.562;8.022;2023-05-18T00:18:09;18.30;;;13.60;;
5821;SDS011;2937;48.562;8.022;2023-05-18T00:23:03;20.80;;;10.77;;
5821;SDS011;2937;48.562;8.022;2023-05-18T00:27:56;15.80;;;10.10;;
5821;SDS011;2937;48.562;8.022;2023-05-18T00:32:49;14.03;;;9.00;;
5821;SDS011;2937;48.562;8.022;2023-05-18T00:37:41;10.87;;;7.50;;
5821;SDS011;2937;48.562;8.022;2023-05-18T00:42:36;11.50;;;8.10;;
5821;SDS011;2937;48.562;8.022;2023-05-18T00:47:28;14.87;;;8.23;;
5821;SDS011;2937;48.562;8.022;2023-05-18T00:52:22;13.90;;;8.00;;
5821;SDS011;2937;48.562;8.022;2023-05-18T00:57:15;14.23;;;8.90;;
5821;SDS011;2937;48.562;8.022;2023-05-18T01:02:10;14.27;;;8.63;;
5821;SDS011;2937;48.562;8.022;2023-05-18T01:07:05;12.53;;;8.33;;
5821;SDS011;2937;48.562;8.022;2023-05-18T01:11:59;18.87;;;10.47;;
5821;SDS011;2937;48.562;8.022;2023-05-18T01:16:54;15.93;;;9.33;;
5821;SDS011;2937;48.562;8.022;2023-05-18T01:21:52;15.53;;;9.90;;
5821;SDS011;2937;48.562;8.022;2023-05-18T01:26:50;13.73;;;8.97;;
5821;SDS011;2937;48.562;8.022;2023-05-18T01:31:49;11.37;;;7.80;;
5821;SDS011;2937;48.562;8.022;2023-05-18T01:36:41;12.53;;;8.60;;
5821;SDS011;2937;48.562;8.022;2023-05-18T01:41:36;13.80;;;8.30;;
5821;SDS011;2937;48.562;8.022;2023-05-18T01:46:39;15.30;;;9.80;;
5821;SDS011;2937;48.562;8.022;2023-05-18T01:51:32;14.77;;;10.13;;
5821;SDS011;2937;48.562;8.022;2023-05-18T01:56:27;14.77;;;8.87;;
5821;SDS011;2937;48.562;8.022;2023-05-18T02:01:22;13.93;;;9.50;;
5821;SDS011;2937;48.562;8.022;2023-05-18T02:06:16;15.20;;;9.60;;
5821;SDS011;2937;48.562;8.022;2023-05-18T02:11:09;18.03;;;10.37;;
5821;SDS011;2937;48.562;8.022;2023-05-18T02:16:02;13.70;;;9.53;;
5821;SDS011;2937;48.562;8.022;2023-05-18T02:20:56;16.07;;;10.90;;
5821;SDS011;2937;48.562;8.022;2023-05-18T02:25:50;15.90;;;10.00;;
5821;SDS011;2937;48.562;8.022;2023-05-18T02:30:45;16.37;;;10.67;;
5821;SDS011;2937;48.562;8.022;2023-05-18T02:35:39;16.40;;;9.30;;
5821;SDS011;2937;48.562;8.022;2023-05-18T02:40:32;20.20;;;11.30;;
5821;SDS011;2937;48.562;8.022;2023-05-18T02:45:26;21.50;;;10.47;;
5821;SDS011;2937;48.562;8.022;2023-05-18T02:50:22;20.23;;;11.50;;
5821;SDS011;2937;48.562;8.022;2023-05-18T02:55:15;17.90;;;10.97;;
5821;SDS011;2937;48.562;8.022;2023-05-18T03:00:36;16.37;;;10.17;;
5821;SDS011;2937;48.562;8.022;2023-05-18T03:05:29;17.10;;;10.40;;
5821;SDS011;2937;48.562;8.022;2023-05-18T03:10:22;15.60;;;10.13;;
5821;SDS011;2937;48.562;8.022;2023-05-18T03:15:15;18.33;;;10.90;;
5821;SDS011;2937;48.562;8.022;2023-05-18T03:20:09;18.50;;;11.43;;
5821;SDS011;2937;48.562;8.022;2023-05-18T03:25:06;21.30;;;11.57;;
5821;SDS011;2937;48.562;8.022;2023-05-18T03:29:59;17.90;;;11.10;;
5821;SDS011;2937;48.562;8.022;2023-05-18T03:34:54;19.00;;;11.20;;
5821;SDS011;2937;48.562;8.022;2023-05-18T03:39:48;17.57;;;11.17;;
5821;SDS011;2937;48.562;8.022;2023-05-18T03:44:41;16.50;;;10.93;;
5821;SDS011;2937;48.562;8.022;2023-05-18T03:49:34;17.90;;;10.40;;
5821;SDS011;2937;48.562;8.022;2023-05-18T03:54:28;22.80;;;11.60;;
5821;SDS011;2937;48.562;8.022;2023-05-18T03:59:22;18.00;;;10.80;;
5821;SDS011;2937;48.562;8.022;2023-05-18T04:04:14;24.70;;;13.53;;
5821;SDS011;2937;48.562;8.022;2023-05-18T04:09:14;20.33;;;11.30;;
5821;SDS011;2937;48.562;8.022;2023-05-18T04:14:07;24.13;;;13.00;;
5821;SDS011;2937;48.562;8.022;2023-05-18T04:19:02;20.40;;;12.77;;
5821;SDS011;2937;48.562;8.022;2023-05-18T04:23:59;20.40;;;11.03;;
5821;SDS011;2937;48.562;8.022;2023-05-18T04:28:53;15.93;;;10.93;;
5821;SDS011;2937;48.562;8.022;2023-05-18T04:33:50;14.60;;;10.07;;
5821;SDS011;2937;48.562;8.022;2023-05-18T04:38:44;17.03;;;10.50;;
5821;SDS011;2937;48.562;8.022;2023-05-18T04:43:37;17.10;;;10.30;;
5821;SDS011;2937;48.562;8.022;2023-05-18T04:48:30;15.73;;;10.17;;
5821;SDS011;2937;48.562;8.022;2023-05-18T04:53:26;13.63;;;9.63;;
5821;SDS011;2937;48.562;8.022;2023-05-18T04:58:21;15.63;;;9.53;;
5821;SDS011;2937;48.562;8.022;2023-05-18T05:03:13;18.47;;;9.40;;
5821;SDS011;2937;48.562;8.022;2023-05-18T05:08:06;17.37;;;9.20;;
5821;SDS011;2937;48.562;8.022;2023-05-18T05:12:59;13.73;;;8.20;;
5821;SDS011;2937;48.562;8.022;2023-05-18T05:17:53;14.27;;;7.90;;
5821;SDS011;2937;48.562;8.022;2023-05-18T05:22:46;13.13;;;8.60;;
5821;SDS011;2937;48.562;8.022;2023-05-18T05:27:44;11.10;;;7.40;;
5821;SDS011;2937;48.562;8.022;2023-05-18T05:32:37;13.17;;;7.80;;
5821;SDS011;2937;48.562;8.022;2023-05-18T05:37:31;12.43;;;7.70;;
5821;SDS011;2937;48.562;8.022;2023-05-18T05:42:25;13.67;;;7.80;;
5821;SDS011;2937;48.562;8.022;2023-05-18T05:47:18;13.17;;;7.33;;
5821;SDS011;2937;48.562;8.022;2023-05-18T05:52:12;15.97;;;8.10;;
5821;SDS011;2937;48.562;8.022;2023-05-18T05:57:07;14.63;;;8.87;;
5821;SDS011;2937;48.562;8.022;2023-05-18T06:02:00;11.70;;;7.20;;
5821;SDS011;2937;48.562;8.022;2023-05-18T06:06:53;10.53;;;7.43;;
5821;SDS011;2937;48.562;8.022;2023-05-18T06:11:46;9.90;;;6.97;;
5821;SDS011;2937;48.562;8.022;2023-05-18T06:16:41;9.83;;;6.63;;
5821;SDS011;2937;48.562;8.022;2023-05-18T06:21:34;12.13;;;6.97;;
5821;SDS011;2937;48.562;8.022;2023-05-18T06:26:27;10.60;;;7.10;;
5821;SDS011;2937;48.562;8.022;2023-05-18T06:31:26;12.70;;;8.40;;
5821;SDS011;2937;48.562;8.022;2023-05-18T06:36:42;10.57;;;7.10;;
5821;SDS011;2937;48.562;8.022;2023-05-18T06:41:35;11.53;;;7.07;;
5821;SDS011;2937;48.562;8.022;2023-05-18T06:46:29;11.43;;;6.67;;
5821;SDS011;2937;48.562;8.022;2023-05-18T06:51:25;11.80;;;6.70;;
5821;SDS011;2937;48.562;8.022;2023-05-18T06:56:20;13.07;;;6.30;;
5821;SDS011;2937;48.562;8.022;2023-05-18T07:01:14;9.43;;;5.93;;
5821;SDS011;2937;48.562;8.022;2023-05-18T07:06:08;10.60;;;6.53;;
5821;SDS011;2937;48.562;8.022;2023-05-18T07:11:01;8.17;;;6.20;;
5821;SDS011;2937;48.562;8.022;2023-05-18T07:15:55;9.40;;;5.90;;
5821;SDS011;2937;48.562;8.022;2023-05-18T07:20:48;9.40;;;6.37;;
5821;SDS011;2937;48.562;8.022;2023-05-18T07:25:41;13.77;;;6.60;;
5821;SDS011;2937;48.562;8.022;2023-05-18T07:30:33;11.47;;;6.33;;
5821;SDS011;2937;48.562;8.022;2023-05-18T07:35:27;8.37;;;5.40;;
5821;SDS011;2937;48.562;8.022;2023-05-18T07:40:20;7.23;;;4.93;;
5821;SDS011;2937;48.562;8.022;2023-05-18T07:45:13;11.27;;;5.13;;
5821;SDS011;2937;48.562;8.022;2023-05-18T07:50:06;10.60;;;5.20;;
5821;SDS011;2937;48.562;8.022;2023-05-18T07:55:00;10.63;;;5.07;;
5821;SDS011;2937;48.562;8.022;2023-05-18T07:59:53;7.07;;;4.60;;
5821;SDS011;2937;48.562;8.022;2023-05-18T08:04:46;9.60;;;4.90;;
5821;SDS011;2937;48.562;8.022;2023-05-18T08:09:39;7.73;;;4.70;;
5821;SDS011;2937;48.562;8.022;2023-05-18T08:14:33;8.67;;;4.87;;
5821;SDS011;2937;48.562;8.022;2023-05-18T08:19:26;9.67;;;5.83;;
5821;SDS011;2937;48.562;8.022;2023-05-18T08:24:19;11.13;;;6.17;;
5821;SDS011;2937;48.562;8.022;2023-05-18T08:29:11;10.87;;;5.10;;
5821;SDS011;2937;48.562;8.022;2023-05-18T08:34:05;9.07;;;5.50;;
5821;SDS011;2937;48.562;8.022;2023-05-18T08:38:58;7.43;;;4.73;;
5821;SDS011;2937;48.562;8.022;2023-05-18T08:43:53;9.50;;;5.50;;
5821;SDS011;2937;48.562;8.022;2023-05-18T08:48:49;8.40;;;5.00;;
5821;SDS011;2937;48.562;8.022;2023-05-18T08:53:44;16.57;;;5.93;;
5821;SDS011;2937;48.562;8.022;2023-05-18T08:58:42;7.60;;;4.70;;
5821;SDS011;2937;48.562;8.022;2023-05-18T09:03:35;8.97;;;4.77;;
5821;SDS011;2937;48.562;8.022;2023-05-18T09:08:29;8.40;;;5.13;;
5821;SDS011;2937;48.562;8.022;2023-05-18T09:13:24;8.13;;;5.43;;
5821;SDS011;2937;48.562;8.022;2023-05-18T09:18:17;12.83;;;5.33;;
5821;SDS011;2937;48.562;8.022;2023-05-18T09:23:15;10.40;;;5.30;;
5821;SDS011;2937;48.562;8.022;2023-05-18T09:28:07;6.67;;;4.23;;
5821;SDS011;2937;48.562;8.022;2023-05-18T09:33:01;9.17;;;4.33;;
5821;SDS011;2937;48.562;8.022;2023-05-18T09:37:55;15.00;;;5.60;;
5821;SDS011;2937;48.562;8.022;2023-05-18T09:42:48;13.87;;;5.50;;
5821;SDS011;2937;48.562;8.022;2023-05-18T09:47:41;7.13;;;4.87;;
5821;SDS011;2937;48.562;8.022;2023-05-18T09:52:40;8.17;;;4.93;;
5821;SDS011;2937;48.562;8.022;2023-05-18T09:57:37;10.33;;;5.47;;
5821;SDS011;2937;48.562;8.022;2023-05-18T10:02:30;8.03;;;5.13;;
5821;SDS011;2937;48.562;8.022;2023-05-18T10:07:23;10.30;;;5.70;;
5821;SDS011;2937;48.562;8.022;2023-05-18T10:12:18;11.30;;;5.67;;
5821;SDS011;2937;48.562;8.022;2023-05-18T10:17:12;8.90;;;5.37;;
5821;SDS011;2937;48.562;8.022;2023-05-18T10:22:08;8.20;;;5.30;;
5821;SDS011;2937;48.562;8.022;2023-05-18T10:27:01;10.13;;;5.57;;
5821;SDS011;2937;48.562;8.022;2023-05-18T10:31:58;6.93;;;5.00;;
5821;SDS011;2937;48.562;8.022;2023-05-18T10:37:00;9.90;;;5.50;;
5821;SDS011;2937;48.562;8.022;2023-05-18T10:41:58;11.47;;;5.70;;
5821;SDS011;2937;48.562;8.022;2023-05-18T10:46:54;8.53;;;5.10;;
5821;SDS011;2937;48.562;8.022;2023-05-18T10:51:49;10.60;;;5.30;;
5821;SDS011;2937;48.562;8.022;2023-05-18T10:56:44;9.47;;;5.53;;
5821;SDS011;2937;48.562;8.022;2023-05-18T11:01:38;15.50;;;4.90;;
5821;SDS011;2937;48.562;8.022;2023-05-18T11:06:32;7.20;;;5.30;;
5821;SDS011;2937;48.562;8.022;2023-05-18T11:11:27;9.00;;;5.83;;
5821;SDS011;2937;48.562;8.022;2023-05-18T11:16:21;7.67;;;5.10;;
5821;SDS011;2937;48.562;8.022;2023-05-18T11:21:48;9.30;;;5.00;;
5821;SDS011;2937;48.562;8.022;2023-05-18T11:26:44;7.97;;;5.17;;
5821;SDS011;2937;48.562;8.022;2023-05-18T11:31:43;11.33;;;5.40;;
5821;SDS011;2937;48.562;8.022;2023-05-18T11:36:42;7.80;;;4.90;;
5821;SDS011;2937;48.562;8.022;2023-05-18T11:41:37;8.23;;;5.00;;
5821;SDS011;2937;48.562;8.022;2023-05-18T11:46:33;10.47;;;5.00;;
5821;SDS011;2937;48.562;8.022;2023-05-18T11:51:26;6.83;;;4.23;;
5821;SDS011;2937;48.562;8.022;2023-05-18T11:56:23;8.20;;;4.50;;
5821;SDS011;2937;48.562;8.022;2023-05-18T12:01:16;6.03;;;4.43;;
5821;SDS011;2937;48.562;8.022;2023-05-18T12:06:10;11.23;;;5.00;;
5821;SDS011;2937;48.562;8.022;2023-05-18T12:11:03;7.00;;;4.60;;
5821;SDS011;2937;48.562;8.022;2023-05-18T12:15:57;7.20;;;4.70;;
5821;SDS011;2937;48.562;8.022;2023-05-18T12:20:50;7.00;;;4.20;;
5821;SDS011;2937;48.562;8.022;2023-05-18T12:25:45;8.00;;;4.60;;
5821;SDS011;2937;48.562;8.022;2023-05-18T12:30:39;10.40;;;4.10;;
5821;SDS011;2937;48.562;8.022;2023-05-18T12:35:34;8.30;;;4.07;;
5821;SDS011;2937;48.562;8.022;2023-05-18T12:40:32;6.40;;;4.20;;
5821;SDS011;2937;48.562;8.022;2023-05-18T12:45:29;11.73;;;4.93;;
5821;SDS011;2937;48.562;8.022;2023-05-18T12:50:23;6.83;;;4.13;;
5821;SDS011;2937;48.562;8.022;2023-05-18T12:55:17;10.17;;;4.37;;
5821;SDS011;2937;48.562;8.022;2023-05-18T13:00:12;7.63;;;4.40;;
5821;SDS011;2937;48.562;8.022;2023-05-18T13:05:07;7.63;;;4.40;;
5821;SDS011;2937;48.562;8.022;2023-05-18T13:10:00;16.70;;;4.80;;
5821;SDS011;2937;48.562;8.022;2023-05-18T13:14:53;7.03;;;4.67;;
5821;SDS011;2937;48.562;8.022;2023-05-18T13:19:46;8.70;;;4.70;;
5821;SDS011;2937;48.562;8.022;2023-05-18T13:24:39;8.20;;;4.20;;
5821;SDS011;2937;48.562;8.022;2023-05-18T13:29:33;7.83;;;4.10;;
5821;SDS011;2937;48.562;8.022;2023-05-18T13:34:27;5.57;;;3.83;;
5821;SDS011;2937;48.562;8.022;2023-05-18T13:39:19;7.27;;;4.23;;
5821;SDS011;2937;48.562;8.022;2023-05-18T13:44:13;7.53;;;3.90;;
5821;SDS011;2937;48.562;8.022;2023-05-18T13:49:08;8.00;;;3.70;;
5821;SDS011;2937;48.562;8.022;2023-05-18T13:54:02;7.40;;;4.23;;
5821;SDS011;2937;48.562;8.022;2023-05-18T13:58:55;9.10;;;3.50;;
5821;SDS011;2937;48.562;8.022;2023-05-18T14:03:49;9.70;;;3.90;;
5821;SDS011;2937;48.562;8.022;2023-05-18T14:08:41;14.90;;;4.07;;
5821;SDS011;2937;48.562;8.022;2023-05-18T14:13:34;7.90;;;4.00;;
5821;SDS011;2937;48.562;8.022;2023-05-18T14:18:27;9.00;;;4.83;;
5821;SDS011;2937;48.562;8.022;2023-05-18T14:23:21;8.57;;;4.00;;
5821;SDS011;2937;48.562;8.022;2023-05-18T14:28:14;7.20;;;4.27;;
5821;SDS011;2937;48.562;8.022;2023-05-18T14:33:08;5.90;;;3.90;;
5821;SDS011;2937;48.562;8.022;2023-05-18T14:38:00;6.60;;;3.87;;
5821;SDS011;2937;48.562;8.022;2023-05-18T14:42:55;10.83;;;3.70;;
5821;SDS011;2937;48.562;8.022;2023-05-18T14:47:48;5.27;;;3.43;;
5821;SDS011;2937;48.562;8.022;2023-05-18T14:52:41;17.90;;;10.17;;
5821;SDS011;2937;48.562;8.022;2023-05-18T14:57:33;9.93;;;5.37;;
5821;SDS011;2937;48.562;8.022;2023-05-18T15:02:27;11.53;;;3.67;;
5821;SDS011;2937;48.562;8.022;2023-05-18T15:07:20;7.07;;;3.77;;
5821;SDS011;2937;48.562;8.022;2023-05-18T15:12:13;22.83;;;11.53;;
5821;SDS011;2937;48.562;8.022;2023-05-18T15:17:07;20.53;;;11.70;;
5821;SDS011;2937;48.562;8.022;2023-05-18T15:22:01;11.13;;;6.27;;
5821;SDS011;2937;48.562;8.022;2023-05-18T15:26:54;8.87;;;5.60;;
5821;SDS011;2937;48.562;8.022;2023-05-18T15:31:47;8.30;;;4.17;;
5821;SDS011;2937;48.562;8.022;2023-05-18T15:36:41;8.40;;;4.37;;
5821;SDS011;2937;48.562;8.022;2023-05-18T15:41:36;5.87;;;3.50;;
5821;SDS011;2937;48.562;8.022;2023-05-18T15:46:28;6.80;;;3.83;;
5821;SDS011;2937;48.562;8.022;2023-05-18T15:51:23;9.73;;;3.93;;
5821;SDS011;2937;48.562;8.022;2023-05-18T15:56:16;6.30;;;3.80;;
5821;SDS011;2937;48.562;8.022;2023-05-18T16:01:10;8.27;;;3.23;;
5821;SDS011;2937;48.562;8.022;2023-05-18T16:06:03;6.23;;;3.40;;
5821;SDS011;2937;48.562;8.022;2023-05-18T16:10:56;5.40;;;3.47;;
5821;SDS011;2937;48.562;8.022;2023-05-18T16:15:49;6.90;;;3.50;;
5821;SDS011;2937;48.562;8.022;2023-05-18T16:20:43;6.33;;;3.70;;
5821;SDS011;2937;48.562;8.022;2023-05-18T16:25:36;12.73;;;4.33;;
5821;SDS011;2937;48.562;8.022;2023-05-18T16:30:28;7.57;;;3.70;;
5821;SDS011;2937;48.562;8.022;2023-05-18T16:35:21;9.00;;;3.87;;
5821;SDS011;2937;48.562;8.022;2023-05-18T16:40:16;11.30;;;4.00;;
5821;SDS011;2937;48.562;8.022;2023-05-18T16:45:09;9.30;;;4.20;;
5821;SDS011;2937;48.562;8.022;2023-05-18T16:50:06;10.30;;;3.90;;
5821;SDS011;2937;48.562;8.022;2023-05-18T16:54:59;7.70;;;4.00;;
5821;SDS011;2937;48.562;8.022;2023-05-18T16:59:53;10.27;;;3.70;;
5821;SDS011;2937;48.562;8.022;2023-05-18T17:04:46;6.73;;;3.77;;
5821;SDS011;2937;48.562;8.022;2023-05-18T17:09:40;8.77;;;3.90;;
5821;SDS011;2937;48.562;8.022;2023-05-18T17:14:33;8.83;;;4.47;;
5821;SDS011;2937;48.562;8.022;2023-05-18T17:19:27;8.67;;;3.73;;
5821;SDS011;2937;48.562;8.022;2023-05-18T17:24:20;6.47;;;3.90;;
5821;SDS011;2937;48.562;8.022;2023-05-18T17:29:12;8.40;;;3.37;;
5821;SDS011;2937;48.562;8.022;2023-05-18T17:34:08;9.10;;;3.73;;
5821;SDS011;2937;48.562;8.022;2023-05-18T17:39:03;7.53;;;3.37;;
5821;SDS011;2937;48.562;8.022;2023-05-18T17:43:55;7.50;;;3.60;;
5821;SDS011;2937;48.562;8.022;2023-05-18T17:48:48;11.27;;;4.00;;
5821;SDS011;2937;48.562;8.022;2023-05-18T17:53:41;5.70;;;3.10;;
5821;SDS011;2937;48.562;8.022;2023-05-18T17:58:35;6.00;;;3.47;;
5821;SDS011;2937;48.562;8.022;2023-05-18T18:03:29;8.93;;;4.03;;
5821;SDS011;2937;48.562;8.022;2023-05-18T18:08:22;6.20;;;3.50;;
5821;SDS011;2937;48.562;8.022;2023-05-18T18:13:15;8.03;;;3.47;;
5821;SDS011;2937;48.562;8.022;2023-05-18T18:18:10;7.80;;;3.60;;
5821;SDS011;2937;48.562;8.022;2023-05-18T18:23:03;7.03;;;3.93;;
5821;SDS011;2937;48.562;8.022;2023-05-18T18:27:56;9.47;;;3.60;;
5821;SDS011;2937;48.562;8.022;2023-05-18T18:32:48;8.20;;;3.60;;
5821;SDS011;2937;48.562;8.022;2023-05-18T18:37:43;7.53;;;3.87;;
5821;SDS011;2937;48.562;8.022;2023-05-18T18:42:39;6.80;;;3.40;;
5821;SDS011;2937;48.562;8.022;2023-05-18T18:47:32;6.97;;;3.70;;
5821;SDS011;2937;48.562;8.022;2023-05-18T18:52:25;6.57;;;3.80;;
5821;SDS011;2937;48.562;8.022;2023-05-18T18:57:19;6.87;;;3.50;;
5821;SDS011;2937;48.562;8.022;2023-05-18T19:02:12;7.33;;;3.83;;
5821;SDS011;2937;48.562;8.022;2023-05-18T19:07:05;7.37;;;3.67;;
5821;SDS011;2937;48.562;8.022;2023-05-18T19:12:01;5.30;;;3.30;;
5821;SDS011;2937;48.562;8.022;2023-05-18T19:16:55;13.97;;;3.40;;
5821;SDS011;2937;48.562;8.022;2023-05-18T19:21:47;8.13;;;3.57;;
5821;SDS011;2937;48.562;8.022;2023-05-18T19:26:40;6.70;;;4.00;;
5821;SDS011;2937;48.562;8.022;2023-05-18T19:31:33;12.23;;;4.03;;
5821;SDS011;2937;48.562;8.022;2023-05-18T19:36:28;7.47;;;3.70;;
5821;SDS011;2937;48.562;8.022;2023-05-18T19:41:21;9.17;;;3.80;;
5821;SDS011;2937;48.562;8.022;2023-05-18T19:46:15;17.50;;;10.37;;
5821;SDS011;2937;48.562;8.022;2023-05-18T19:51:08;11.57;;;6.70;;
5821;SDS011;2937;48.562;8.022;2023-05-18T19:56:02;9.23;;;6.00;;
5821;SDS011;2937;48.562;8.022;2023-05-18T20:00:54;35.70;;;17.53;;
5821;SDS011;2937;48.562;8.022;2023-05-18T20:05:47;36.27;;;19.40;;
5821;SDS011;2937;48.562;8.022;2023-05-18T20:10:40;33.20;;;16.83;;
5821;SDS011;2937;48.562;8.022;2023-05-18T20:15:36;36.57;;;23.60;;
5821;SDS011;2937;48.562;8.022;2023-05-18T20:20:29;16.20;;;11.40;;
5821;SDS011;2937;48.562;8.022;2023-05-18T20:25:23;19.00;;;11.57;;
5821;SDS011;2937;48.562;8.022;2023-05-18T20:30:17;11.87;;;5.10;;
5821;SDS011;2937;48.562;8.022;2023-05-18T20:35:11;9.57;;;4.47;;
5821;SDS011;2937;48.562;8.022;2023-05-18T20:40:06;14.07;;;4.70;;
5821;SDS011;2937;48.562;8.022;2023-05-18T20:44:59;16.60;;;9.73;;
5821;SDS011;2937;48.562;8.022;2023-05-18T20:49:52;31.10;;;17.20;;
5821;SDS011;2937;48.562;8.022;2023-05-18T20:54:46;13.93;;;6.80;;
5821;SDS011;2937;48.562;8.022;2023-05-18T20:59:39;10.70;;;4.87;;
5821;SDS011;2937;48.562;8.022;2023-05-18T21:04:33;8.27;;;4.77;;
5821;SDS011;2937;48.562;8.022;2023-05-18T21:09:25;11.83;;;5.53;;
5821;SDS011;2937;48.562;8.022;2023-05-18T21:19:25;8.67;;;4.60;;
5821;SDS011;2937;48.562;8.022;2023-05-18T21:24:18;9.37;;;4.63;;
5821;SDS011;2937;48.562;8.022;2023-05-18T21:29:11;7.70;;;4.20;;
5821;SDS011;2937;48.562;8.022;2023-05-18T21:34:03;8.23;;;4.30;;
5821;SDS011;2937;48.562;8.022;2023-05-18T21:38:58;10.00;;;6.33;;
5821;SDS011;2937;48.562;8.022;2023-05-18T21:43:50;8.77;;;4.53;;
5821;SDS011;2937;48.562;8.022;2023-05-18T21:48:43;8.93;;;4.63;;
5821;SDS011;2937;48.562;8.022;2023-05-18T21:53:36;9.53;;;4.63;;
5821;SDS011;2937;48.562;8.022;2023-05-18T21:58:30;9.33;;;4.87;;
5821;SDS011;2937;48.562;8.022;2023-05-18T22:03:23;9.27;;;5.57;;
5821;SDS011;2937;48.562;8.022;2023-05-18T22:08:16;9.33;;;5.17;;
5821;SDS011;2937;48.562;8.022;2023-05-18T22:13:08;9.60;;;4.80;;
5821;SDS011;2937;48.562;8.022;2023-05-18T22:18:02;10.40;;;5.77;;
5821;SDS011;2937;48.562;8.022;2023-05-18T22:22:55;8.30;;;4.60;;
5821;SDS011;2937;48.562;8.022;2023-05-18T22:27:48;9.87;;;5.10;;
5821;SDS011;2937;48.562;8.022;2023-05-18T22:32:41;7.63;;;5.20;;
5821;SDS011;2937;48.562;8.022;2023-05-18T22:37:36;10.10;;;5.17;;
5821;SDS011;2937;48.562;8.022;2023-05-18T22:42:28;11.90;;;5.13;;
5821;SDS011;2937;48.562;8.022;2023-05-18T22:47:21;12.10;;;5.87;;
5821;SDS011;2937;48.562;8.022;2023-05-18T22:52:14;8.37;;;5.70;;
5821;SDS011;2937;48.562;8.022;2023-05-18T22:57:09;9.33;;;5.90;;
5821;SDS011;2937;48.562;8.022;2023-05-18T23:02:02;9.07;;;5.73;;
5821;SDS011;2937;48.562;8.022;2023-05-18T23:06:55;7.00;;;5.73;;
5821;SDS011;2937;48.562;8.022;2023-05-18T23:11:48;8.90;;;6.20;;
5821;SDS011;2937;48.562;8.022;2023-05-18T23:16:44;8.73;;;6.23;;
5821;SDS011;2937;48.562;8.022;2023-05-18T23:21:38;11.90;;;6.43;;
5821;SDS011;2937;48.562;8.022;2023-05-18T23:26:31;7.33;;;6.27;;
5821;SDS011;2937;48.562;8.022;2023-05-18T23:31:24;13.57;;;6.87;;
5821;SDS011;2937;48.562;8.022;2023-05-18T23:36:19;12.10;;;7.03;;
5821;SDS011;2937;48.562;8.022;2023-05-18T23:41:12;10.30;;;6.57;;
5821;SDS011;2937;48.562;8.022;2023-05-18T23:46:05;8.70;;;6.47;;
5821;SDS011;2937;48.562;8.022;2023-05-18T23:50:59;12.07;;;6.90;;
5821;SDS011;2937;48.562;8.022;2023-05-18T23:55:53;7.50;;;5.97;;
